« 岐阜基地航空祭2019【飛行編2】 岐阜飛行場 2019/11/10 sun | トップページ | 岐阜基地航空祭2019【展示編】 岐阜飛行場 2019/11/10 sun »

2019/11/16

定点 富山空港 2019/11/16 sat

ご無沙汰の河原。生憎の雨模様ですが、水飛沫に期待。

RJNT 160000Z VRB02KT 9999 -SHRA FEW010 SCT035 BKN050 10/06 Q1018

20191116_rjnt_00ja84an

20191116_rjnt_01ja84an

ANA316 RJNT-RJTT JA84AN B737-881

RJNT 160100Z 21003KT 9999 -SHRA FEW010 SCT040 BKN050 10/07 Q1018

20191116_rjnt_02ja70an

20191116_rjnt_03ja70an

ANA315 RJTT-RJNT JA70AN B737-881

RJNT 160200Z 17003KT 140V200 9999 -SHRA FEW005 SCT050 BKN060 10/08 Q1018

20191116_rjnt_04b6652

20191116_rjnt_05b6652

20191116_rjnt_06b6652

CSN613 ZYTL-RJNT B-6652 A320-232

20191116_rjnt_07ja70an

RJNT 160300Z 15003KT 050V210 9999 -SHRA FEW005 SCT050 BKN070 11/08 Q1018

20191116_rjnt_08ja70an

20191116_rjnt_09ja70an

ANA1181 RJNT-RJCC JA70AN B737-881

20191116_rjnt_10b6652

20191116_rjnt_11b6652

CSN614 RJNT-ZYTL B-6652 A320-232

20191116_rjnt_12b5269

20191116_rjnt_13b5269

20191116_rjnt_14b5269

CSH825 ZSPD-RJNT B-5269 B737-76D

|

« 岐阜基地航空祭2019【飛行編2】 岐阜飛行場 2019/11/10 sun | トップページ | 岐阜基地航空祭2019【展示編】 岐阜飛行場 2019/11/10 sun »

富山空港」カテゴリの記事

コメント

コメントを書く



(ウェブ上には掲載しません)


コメントは記事投稿者が公開するまで表示されません。



« 岐阜基地航空祭2019【飛行編2】 岐阜飛行場 2019/11/10 sun | トップページ | 岐阜基地航空祭2019【展示編】 岐阜飛行場 2019/11/10 sun »